Terminal Aerodrome Forecast
Issued by NWS

Home | Current Version | Previous Version | Text Only | Print | Product List | Glossary On
Versions: 1 2 3 4 5 6 7 8 9 10 11 12 13 14 15 16 17 18 19 20 21 22 23 24 25 26 27 28 29
000
FTUS45 KPSR 151439 AAA
TAFPHX
TAF AMD
KPHX 151439Z 1515/1618 08005KT P6SM SKC
     FM151700 07010KT P6SM SKC
     FM152100 VRB04KT P6SM FEW250
     FM160400 11005KT P6SM FEW250
     FM161500 12009KT P6SM BKN180=

USA.gov is the U.S. government's official web portal to all federal, state and local government web resources and services.